Aérodrome :
LOGIN :

S'inscrire | Disclaimer

   EN    FR    IT 

 










Légende :    VFR   VFR Marginal   IFR   IFR Intensif   IFR Très Intensif
Visi : 
Plafond : 
>= 8 km
>= 3000ft
5 à 8 km
1000 à 3000 ft
1500m à 5 km
500 à 1000 ft
800 à 1500m
200 à 500 ft
< 800m
< 200 ft
Symboles :   Orages  Brouillard  Fortes neiges  Fortes précipitations  Vent > 20 kt
SIGMETs :   Divers  Orages  Givrage  Turbulence  Onde Orograph.  Cendres Volcan.







- Altitude de l'aérodrome : 410 ft
- Code IATA : AVB


LIPA - Aviano AB Pordenone

DERNIER METAR :
  • 210955Z 08010KT 9999 FEW090 25/13 Q1015 RMK FEW VIS MIN 9999 WIND THR05 /////KT WIND THR23 /////KT A2999 BLU

METARs EXPIRÉS :
  • 210855Z 06010KT 9999 FEW100 24/13 Q1015 RMK SCT SCT200 VIS MIN 9999 WIND THR05 /////KT WIND THR23 /////KT A3000 BLU
  • 210755Z 06012KT 9999 FEW100 24/12 Q1015 RMK SCT SCT200 VIS MIN 9999 WIND THR05 /////KT WIND THR23 /////KT A2999 BLU

TAF TAF LIPA
Valide du 21 à 09h jusqu'au 21 à 18h UTC


210800Z 2109/2118 06010KT 9999 FEW100
PROB30
TEMPO 2112/2115 5000 SHRA FEW020CB BKN040
Pas de NOTAMs connus pour ce terrain.



MET'MAP, la Météo Aéronautique d'un coup d'oeil ! - Copyright ORBIFLY Décembre 2007 - Disclaimer

ORBIFLY MET'MAP TEAM :

Programmation & Développement : Alexandra Zaïnal
Conception & Développement : Baudouin d'Aumeries
Co-Programmation & Développement : Marc-Olivier Méhu
Soutien technique & logistique : Manuel Goepfert

Contact : metmap@orbifly.com




SOURCES & CREDITS :

   NOAA